createdAt,value
2019-05-15T00:01:40.695Z,16.53
2019-05-15T00:04:09.325Z,16.56
2019-05-15T00:06:40.811Z,16.34
2019-05-15T00:09:11.468Z,16.36
2019-05-15T00:11:41.616Z,16.35
2019-05-15T00:14:12.212Z,16.43
2019-05-15T00:16:42.359Z,16.36
2019-05-15T00:19:13.185Z,16.40
2019-05-15T00:21:43.349Z,16.33
2019-05-15T00:24:13.561Z,16.34
2019-05-15T00:26:43.841Z,16.37
2019-05-15T00:29:16.515Z,16.33
2019-05-15T00:31:48.502Z,16.28
2019-05-15T00:34:21.501Z,16.33
2019-05-15T00:36:51.785Z,16.27
2019-05-15T00:39:22.444Z,16.17
2019-05-15T00:41:54.865Z,16.26
2019-05-15T00:44:25.051Z,15.99
2019-05-15T00:46:58.241Z,15.91
2019-05-15T00:49:30.562Z,16.10
2019-05-15T00:52:02.741Z,16.04
2019-05-15T00:54:32.873Z,15.96
2019-05-15T00:57:04.465Z,16.02
2019-05-15T00:59:35.381Z,16.05
2019-05-15T01:02:05.564Z,15.98
2019-05-15T01:04:35.711Z,15.99
2019-05-15T01:07:08.140Z,15.98
2019-05-15T01:09:38.589Z,15.96
2019-05-15T01:12:09.308Z,15.92
2019-05-15T01:14:39.525Z,15.90
2019-05-15T01:17:09.732Z,15.75
2019-05-15T01:19:43.450Z,15.83
2019-05-15T01:22:14.470Z,15.72
2019-05-15T01:24:45.505Z,15.83
2019-05-15T01:27:15.660Z,15.80
2019-05-15T01:29:45.953Z,15.81
2019-05-15T01:32:19.112Z,15.82
2019-05-15T01:34:51.759Z,15.80
2019-05-15T01:37:21.906Z,15.81
2019-05-15T01:39:52.067Z,15.76
2019-05-15T01:42:23.222Z,15.73
2019-05-15T01:44:53.742Z,15.71
2019-05-15T01:47:23.924Z,15.68
2019-05-15T01:49:54.076Z,15.61
2019-05-15T01:52:24.217Z,15.59
2019-05-15T01:54:58.278Z,15.52
2019-05-15T01:57:28.745Z,15.59
2019-05-15T02:00:00.853Z,15.50
2019-05-15T02:02:31.173Z,15.29
2019-05-15T02:05:01.894Z,15.08
2019-05-15T02:07:33.009Z,15.50
2019-05-15T02:10:04.681Z,15.48
2019-05-15T02:12:35.156Z,15.39
2019-05-15T02:15:08.566Z,15.11
2019-05-15T02:17:39.362Z,15.29
2019-05-15T02:20:10.146Z,15.27
2019-05-15T02:22:42.579Z,15.19
2019-05-15T02:25:14.140Z,15.00
2019-05-15T02:27:44.279Z,14.97
2019-05-15T02:30:24.244Z,15.02
2019-05-15T02:32:49.902Z,15.07
2019-05-15T02:35:20.138Z,15.05
2019-05-15T02:37:50.294Z,15.11
2019-05-15T02:40:20.534Z,15.02
2019-05-15T02:42:51.653Z,15.05
2019-05-15T02:45:22.265Z,14.99
2019-05-15T02:47:52.503Z,14.90
2019-05-15T02:50:24.150Z,15.05
2019-05-15T02:52:54.391Z,14.80
2019-05-15T02:55:25.447Z,14.98
2019-05-15T02:57:58.900Z,14.92
2019-05-15T03:00:38.065Z,14.88
2019-05-15T03:03:00.557Z,14.97
2019-05-15T03:05:31.147Z,14.69
2019-05-15T03:08:01.345Z,14.83
2019-05-15T03:10:32.471Z,14.76
2019-05-15T03:13:04.171Z,14.86
2019-05-15T03:15:34.879Z,14.80
2019-05-15T03:18:05.203Z,14.76
2019-05-15T03:20:35.346Z,14.72
2019-05-15T03:23:09.061Z,14.79
2019-05-15T03:25:40.345Z,14.70
2019-05-15T03:28:10.723Z,14.68
2019-05-15T03:31:13.452Z,14.64
2019-05-15T03:33:25.203Z,14.17
2019-05-15T03:35:53.636Z,14.10
2019-05-15T03:38:19.421Z,14.49
2019-05-15T03:40:50.113Z,14.50
2019-05-15T03:43:20.745Z,14.35
2019-05-15T03:45:50.895Z,14.44
2019-05-15T03:48:21.061Z,14.41
2019-05-15T03:50:52.210Z,14.38
2019-05-15T03:53:22.869Z,14.47
2019-05-15T03:55:53.048Z,14.49
2019-05-15T03:58:23.206Z,14.52
2019-05-15T04:00:53.367Z,14.49
2019-05-15T04:03:23.550Z,14.51
2019-05-15T04:05:55.272Z,14.49
2019-05-15T04:08:26.220Z,14.39
2019-05-15T04:10:59.412Z,14.47
2019-05-15T04:13:30.035Z,14.46
2019-05-15T04:16:01.032Z,14.50
2019-05-15T04:18:31.275Z,14.43
2019-05-15T04:21:01.613Z,14.51
2019-05-15T04:23:31.941Z,14.38
2019-05-15T04:26:04.678Z,14.08
2019-05-15T04:28:36.578Z,14.07
2019-05-15T04:31:09.241Z,14.45
2019-05-15T04:33:39.899Z,14.37
2019-05-15T04:36:12.188Z,14.27
2019-05-15T04:38:42.346Z,13.21
2019-05-15T04:41:14.147Z,14.07
2019-05-15T04:43:45.292Z,13.76
2019-05-15T04:46:19.362Z,13.80
2019-05-15T04:48:50.179Z,13.06
2019-05-15T04:51:19.985Z,13.84
2019-05-15T04:53:50.661Z,13.97
2019-05-15T04:56:22.557Z,14.17
2019-05-15T04:58:54.976Z,14.30
2019-05-15T05:01:25.222Z,14.47
2019-05-15T05:03:55.362Z,14.49
2019-05-15T05:06:29.229Z,14.60
2019-05-15T05:08:59.633Z,14.67
2019-05-15T05:11:30.788Z,14.59
2019-05-15T05:14:00.941Z,14.81
2019-05-15T05:16:31.559Z,14.92
2019-05-15T05:19:04.021Z,14.92
2019-05-15T05:21:34.174Z,14.88
2019-05-15T05:24:04.325Z,14.74
2019-05-15T05:26:38.215Z,15.02
2019-05-15T05:29:09.054Z,14.89
2019-05-15T05:31:42.131Z,14.96
2019-05-15T05:34:13.106Z,15.03
2019-05-15T05:36:47.879Z,15.14
2019-05-15T05:39:19.892Z,15.07
2019-05-15T05:41:50.842Z,15.21
2019-05-15T05:44:21.194Z,15.36
2019-05-15T05:46:51.454Z,15.46
2019-05-15T05:49:21.591Z,15.50
2019-05-15T05:51:52.433Z,15.25
2019-05-15T05:54:23.163Z,15.44
2019-05-15T05:56:53.468Z,15.55
2019-05-15T05:59:23.598Z,15.45
2019-05-15T06:01:54.918Z,15.01
2019-05-15T06:04:27.783Z,15.48
2019-05-15T06:07:07.091Z,15.49
2019-05-15T06:09:29.371Z,15.65
2019-05-15T06:12:07.819Z,15.65
2019-05-15T06:14:38.876Z,15.65
2019-05-15T06:17:09.566Z,15.76
2019-05-15T06:19:39.736Z,15.86
2019-05-15T06:22:09.945Z,16.01
2019-05-15T06:24:40.143Z,16.16
2019-05-15T06:27:22.789Z,16.30
2019-05-15T06:29:58.022Z,16.27
2019-05-15T06:32:30.958Z,16.26
2019-05-15T06:35:01.553Z,16.23
2019-05-15T06:37:32.907Z,16.37
2019-05-15T06:40:04.111Z,16.49
2019-05-15T06:42:39.252Z,16.54
2019-05-15T06:45:18.800Z,16.46
2019-05-15T06:47:50.035Z,16.64
2019-05-15T06:50:38.300Z,16.49
2019-05-15T06:53:12.301Z,16.49
2019-05-15T06:55:44.692Z,16.61
2019-05-15T06:58:25.717Z,16.46
2019-05-15T07:03:53.020Z,16.59
2019-05-15T07:06:28.686Z,16.72
2019-05-15T07:08:59.045Z,16.76
2019-05-15T07:11:52.359Z,16.52
2019-05-15T07:14:33.543Z,16.67
2019-05-15T07:17:09.228Z,16.67
2019-05-15T07:20:08.524Z,16.74
2019-05-15T07:22:44.439Z,16.63
2019-05-15T07:25:21.186Z,16.85
2019-05-15T07:28:00.724Z,16.89
2019-05-15T07:30:32.507Z,16.93
2019-05-15T07:33:08.594Z,16.84
2019-05-15T07:35:38.686Z,16.98
2019-05-15T07:38:10.865Z,17.07
2019-05-15T07:40:43.633Z,17.13
2019-05-15T07:43:18.262Z,17.17
2019-05-15T07:45:54.956Z,17.18
2019-05-15T07:48:29.150Z,17.16
2019-05-15T07:51:11.650Z,17.29
2019-05-15T07:53:48.986Z,17.56
2019-05-15T07:56:21.628Z,17.24
2019-05-15T07:58:52.931Z,17.28
2019-05-15T08:01:25.226Z,17.54
2019-05-15T08:04:22.838Z,17.59
2019-05-15T08:06:44.849Z,16.98
2019-05-15T08:09:23.748Z,17.31
2019-05-15T08:12:08.344Z,17.25
2019-05-15T08:14:43.519Z,17.41
2019-05-15T08:17:22.104Z,17.01
2019-05-15T08:19:58.237Z,17.53
2019-05-15T08:22:38.877Z,17.56
2019-05-15T08:25:32.442Z,17.84
2019-05-15T08:28:44.629Z,18.03
2019-05-15T08:31:41.503Z,17.98
2019-05-15T08:34:35.271Z,18.12
2019-05-15T08:37:10.638Z,18.32
2019-05-15T08:39:44.478Z,18.31
2019-05-15T08:42:18.834Z,18.52
2019-05-15T08:44:49.578Z,18.08
2019-05-15T08:47:21.176Z,18.54
2019-05-15T08:49:54.743Z,18.57
2019-05-15T08:52:28.286Z,18.65
2019-05-15T08:55:01.368Z,18.64
2019-05-15T08:57:32.649Z,17.95
2019-05-15T09:00:18.592Z,18.50
2019-05-15T09:02:50.890Z,18.82
2019-05-15T09:05:28.298Z,18.83
2019-05-15T09:08:02.254Z,19.03
2019-05-15T09:10:50.158Z,19.05
2019-05-15T09:13:26.045Z,19.10
2019-05-15T09:15:58.887Z,19.33
2019-05-15T09:18:30.031Z,19.30
2019-05-15T09:21:08.571Z,19.21
2019-05-15T09:23:39.563Z,18.75
2019-05-15T09:26:11.907Z,18.81
2019-05-15T09:28:42.784Z,19.03
2019-05-15T09:31:19.024Z,19.03
2019-05-15T09:33:49.445Z,19.25
2019-05-15T09:36:20.328Z,19.56
2019-05-15T09:38:51.550Z,19.62
2019-05-15T09:41:24.699Z,19.54
2019-05-15T09:43:57.764Z,19.75
2019-05-15T09:46:34.010Z,19.95
2019-05-15T09:49:08.565Z,19.93
2019-05-15T09:51:40.872Z,19.97
2019-05-15T09:54:11.864Z,20.22
2019-05-15T09:56:49.314Z,20.76
2019-05-15T09:59:22.495Z,20.76
2019-05-15T10:01:55.713Z,21.03
2019-05-15T10:04:30.255Z,20.99
2019-05-15T10:07:00.913Z,21.21
2019-05-15T10:09:33.018Z,21.29
2019-05-15T10:12:09.998Z,21.63
2019-05-15T10:14:40.687Z,21.70
2019-05-15T10:17:18.397Z,21.88
2019-05-15T10:19:49.838Z,22.08
2019-05-15T10:22:23.021Z,22.07
2019-05-15T10:24:59.218Z,22.44
2019-05-15T10:27:53.973Z,22.15
2019-05-15T10:30:29.859Z,22.17
2019-05-15T10:33:01.361Z,22.59
2019-05-15T10:38:31.987Z,23.03
2019-05-15T10:41:09.374Z,23.09
2019-05-15T10:43:45.859Z,22.79
2019-05-15T10:46:13.336Z,22.92
2019-05-15T10:48:42.735Z,23.13
2019-05-15T10:51:12.901Z,23.21
2019-05-15T10:53:48.830Z,22.89
2019-05-15T10:56:19.604Z,23.27
2019-05-15T10:58:52.402Z,22.63
2019-05-15T11:01:22.581Z,22.91
2019-05-15T11:03:52.859Z,23.20
2019-05-15T11:06:23.452Z,23.58
2019-05-15T11:08:53.631Z,23.41
2019-05-15T11:11:23.916Z,23.51
2019-05-15T11:13:54.456Z,23.81
2019-05-15T11:16:28.051Z,24.01
2019-05-15T11:18:58.563Z,23.86
2019-05-15T11:21:28.923Z,23.94
2019-05-15T11:23:59.384Z,23.86
2019-05-15T11:26:33.490Z,23.93
2019-05-15T11:29:02.468Z,24.09
2019-05-15T11:31:40.492Z,24.63
2019-05-15T11:34:23.965Z,24.83
2019-05-15T11:37:24.196Z,24.88
2019-05-15T11:40:01.287Z,24.99
2019-05-15T11:42:45.106Z,24.83
2019-05-15T11:45:18.553Z,25.00
2019-05-15T11:47:49.597Z,25.02
2019-05-15T11:50:23.651Z,25.30
2019-05-15T11:52:59.946Z,25.89
2019-05-15T11:55:34.249Z,25.98
2019-05-15T11:58:09.433Z,26.27
2019-05-15T12:00:43.488Z,26.19
2019-05-15T12:03:24.956Z,26.39
2019-05-15T12:06:14.565Z,26.58
2019-05-15T12:08:31.431Z,26.63
2019-05-15T12:11:03.848Z,26.03
2019-05-15T12:13:47.835Z,26.73
2019-05-15T12:16:18.922Z,26.91
2019-05-15T12:18:52.931Z,27.25
2019-05-15T12:25:10.260Z,27.88
2019-05-15T12:27:41.833Z,27.13
2019-05-15T12:30:15.783Z,27.29
2019-05-15T12:32:49.332Z,27.49
2019-05-15T12:35:21.258Z,27.63
2019-05-15T12:37:51.414Z,27.79
2019-05-15T13:00:57.937Z,28.82
2019-05-15T13:03:30.981Z,29.33
2019-05-15T13:06:03.704Z,28.94
2019-05-15T13:08:38.300Z,29.16
2019-05-15T13:11:10.237Z,29.25
2019-05-15T13:13:39.768Z,29.52
2019-05-15T13:16:10.443Z,29.88
2019-05-15T13:18:41.419Z,29.95
2019-05-15T13:21:12.207Z,30.11
2019-05-15T13:23:42.395Z,29.39
2019-05-15T13:26:23.040Z,30.03
2019-05-15T13:28:46.602Z,30.19
2019-05-15T13:31:19.101Z,30.44
2019-05-15T13:33:49.707Z,29.88
2019-05-15T13:36:20.062Z,30.41
2019-05-15T13:38:54.144Z,30.41
2019-05-15T13:41:23.925Z,30.60
2019-05-15T13:43:54.656Z,30.56
2019-05-15T13:46:28.773Z,30.33
2019-05-15T13:48:59.524Z,30.59
2019-05-15T13:51:30.052Z,30.44
2019-05-15T13:54:01.601Z,30.29
2019-05-15T13:56:34.067Z,30.63
2019-05-15T13:59:04.889Z,30.72
2019-05-15T14:01:35.073Z,31.16
2019-05-15T14:04:08.075Z,31.32
2019-05-15T14:06:38.170Z,31.95
2019-05-15T14:09:10.008Z,32.22
2019-05-15T14:11:40.167Z,32.37
2019-05-15T14:14:12.896Z,33.10
2019-05-15T14:16:45.352Z,33.92
2019-05-15T14:19:17.438Z,34.73
2019-05-15T14:21:52.007Z,35.84
2019-05-15T14:24:26.911Z,37.23
2019-05-15T14:26:59.338Z,38.81
2019-05-15T14:29:31.541Z,40.21
2019-05-15T14:32:08.131Z,41.36
2019-05-15T14:34:58.532Z,42.89
2019-05-15T14:38:12.120Z,43.31
2019-05-15T14:40:42.576Z,43.35
2019-05-15T14:43:14.700Z,43.86
2019-05-15T14:45:48.019Z,44.84
2019-05-15T14:48:19.548Z,43.84
2019-05-15T14:50:49.816Z,43.40
2019-05-15T14:53:20.450Z,44.04
2019-05-15T14:55:51.310Z,44.76
2019-05-15T14:58:21.467Z,44.58
2019-05-15T15:00:51.630Z,44.41
2019-05-15T15:03:22.901Z,43.20
2019-05-15T15:05:53.949Z,43.79
2019-05-15T15:08:25.495Z,43.89
2019-05-15T15:10:59.248Z,44.31
2019-05-15T15:13:28.844Z,43.78
2019-05-15T15:16:00.377Z,43.72
2019-05-15T15:18:30.909Z,43.94
2019-05-15T15:21:01.033Z,44.06
2019-05-15T15:23:31.766Z,42.37
2019-05-15T15:26:01.890Z,40.21
2019-05-15T15:28:32.036Z,38.04
2019-05-15T15:31:03.256Z,35.48
2019-05-15T15:33:35.794Z,34.12
2019-05-15T15:36:08.674Z,32.92
2019-05-15T15:38:43.427Z,31.87
2019-05-15T15:41:11.006Z,30.65
2019-05-15T15:43:41.489Z,29.57
2019-05-15T15:46:12.041Z,28.74
2019-05-15T15:48:43.009Z,27.56
2019-05-15T15:51:13.640Z,27.18
2019-05-15T15:53:47.990Z,26.75
2019-05-15T15:56:20.311Z,26.32
2019-05-15T15:58:50.460Z,26.03
2019-05-15T16:01:23.934Z,25.75
2019-05-15T16:03:53.367Z,25.23
2019-05-15T16:06:23.794Z,25.04
2019-05-15T16:08:55.890Z,24.80
2019-05-15T16:11:28.953Z,24.22
2019-05-15T16:13:59.095Z,24.23
2019-05-15T16:16:30.496Z,23.84
2019-05-15T16:19:01.659Z,23.63
2019-05-15T16:21:32.372Z,23.73
2019-05-15T16:24:13.757Z,23.69
2019-05-15T16:26:34.903Z,23.49
2019-05-15T16:29:05.087Z,23.08
2019-05-15T16:31:35.804Z,22.98
2019-05-15T16:34:08.094Z,22.67
2019-05-15T16:36:38.482Z,23.01
2019-05-15T16:39:11.892Z,22.78
2019-05-15T16:41:42.989Z,22.79
2019-05-15T16:44:15.449Z,22.79
2019-05-15T16:46:48.335Z,22.46
2019-05-15T16:49:20.020Z,22.32
2019-05-15T16:51:50.727Z,22.26
2019-05-15T16:54:20.876Z,22.18
2019-05-15T16:56:51.073Z,22.32
2019-05-15T16:59:22.870Z,22.20
2019-05-15T17:01:53.580Z,22.08
2019-05-15T17:04:24.530Z,22.11
2019-05-15T17:06:55.366Z,22.19
2019-05-15T17:09:28.113Z,22.00
2019-05-15T17:11:59.468Z,22.07
2019-05-15T17:14:30.511Z,21.80
2019-05-15T17:17:08.007Z,21.76
2019-05-15T17:19:39.693Z,21.84
2019-05-15T17:22:09.854Z,21.75
2019-05-15T17:24:40.098Z,21.46
2019-05-15T17:27:12.343Z,21.38
2019-05-15T17:29:42.817Z,21.39
2019-05-15T17:32:12.960Z,21.18
2019-05-15T17:34:43.816Z,21.32
2019-05-15T17:37:18.089Z,21.44
2019-05-15T17:39:48.504Z,21.23
2019-05-15T17:42:18.781Z,21.39
2019-05-15T17:44:48.964Z,21.29
2019-05-15T17:47:20.637Z,21.18
2019-05-15T17:49:52.706Z,21.15
2019-05-15T17:52:22.870Z,21.12
2019-05-15T17:54:53.134Z,20.97
2019-05-15T17:57:24.221Z,21.06
2019-05-15T17:59:54.451Z,21.00
2019-05-15T18:02:24.592Z,20.93
2019-05-15T18:04:58.595Z,21.15
2019-05-15T18:07:28.512Z,21.19
2019-05-15T18:09:59.250Z,21.15
2019-05-15T18:12:29.496Z,21.10
2019-05-15T18:14:59.670Z,21.08
2019-05-15T18:17:30.964Z,21.05
2019-05-15T18:20:01.131Z,21.05
2019-05-15T18:22:32.885Z,20.89
2019-05-15T18:25:09.047Z,21.00
2019-05-15T18:27:40.831Z,21.00
2019-05-15T18:30:12.362Z,20.98
2019-05-15T18:32:48.849Z,20.80
2019-05-15T18:35:38.491Z,20.80
2019-05-15T18:38:33.162Z,20.86
2019-05-15T18:41:03.992Z,20.79
2019-05-15T18:43:34.298Z,20.75
2019-05-15T18:46:04.475Z,20.60
2019-05-15T18:48:34.766Z,20.62
2019-05-15T18:51:08.099Z,20.67
2019-05-15T18:53:40.711Z,20.67
2019-05-15T18:56:10.939Z,20.66
2019-05-15T18:58:41.520Z,20.54
2019-05-15T19:01:12.172Z,20.41
2019-05-15T19:03:42.354Z,20.50
2019-05-15T19:06:12.543Z,20.50
2019-05-15T19:08:44.102Z,20.46
2019-05-15T19:11:14.717Z,20.39
2019-05-15T19:13:45.217Z,20.39
2019-05-15T19:16:15.395Z,19.91
2019-05-15T19:18:47.771Z,20.23
2019-05-15T19:21:17.501Z,20.33
2019-05-15T19:23:48.514Z,20.28
2019-05-15T19:26:19.252Z,20.37
2019-05-15T19:28:50.651Z,20.18
2019-05-15T19:31:26.804Z,20.23
2019-05-15T19:33:53.287Z,20.28
2019-05-15T19:36:27.612Z,20.13
2019-05-15T19:39:00.657Z,20.07
2019-05-15T19:41:34.211Z,20.05
2019-05-15T19:44:05.243Z,20.11
2019-05-15T19:46:35.477Z,20.05
2019-05-15T19:49:05.735Z,19.95
2019-05-15T19:51:40.497Z,19.92
2019-05-15T19:54:11.836Z,19.98
2019-05-15T19:56:42.438Z,20.05
2019-05-15T19:59:12.596Z,19.93
2019-05-15T20:01:42.811Z,19.92
2019-05-15T20:04:14.520Z,19.91
2019-05-15T20:06:44.725Z,19.94
2019-05-15T20:09:18.262Z,19.90
2019-05-15T20:11:48.090Z,19.89
2019-05-15T20:14:18.393Z,19.87
2019-05-15T20:16:48.505Z,19.78
2019-05-15T20:19:20.275Z,19.65
2019-05-15T20:21:50.961Z,19.56
2019-05-15T20:24:22.245Z,19.62
2019-05-15T20:26:52.500Z,19.66
2019-05-15T20:29:22.766Z,19.67
2019-05-15T20:31:55.786Z,19.66
2019-05-15T20:34:25.767Z,19.68
2019-05-15T20:36:58.644Z,19.60
2019-05-15T20:39:28.264Z,19.55
2019-05-15T20:41:58.485Z,19.52
2019-05-15T20:44:29.183Z,19.54
2019-05-15T20:46:59.357Z,19.53
2019-05-15T20:49:30.930Z,19.49
2019-05-15T20:52:02.784Z,19.48
2019-05-15T20:54:33.427Z,19.48
2019-05-15T20:57:05.271Z,19.41
2019-05-15T20:59:35.521Z,19.25
2019-05-15T21:02:06.242Z,19.37
2019-05-15T21:04:39.851Z,19.22
2019-05-15T21:07:10.373Z,19.19
2019-05-15T21:09:40.641Z,19.29
2019-05-15T21:12:12.434Z,19.26
2019-05-15T21:14:43.271Z,19.21
2019-05-15T21:17:14.521Z,19.12
2019-05-15T21:19:46.098Z,19.16
2019-05-15T21:22:18.065Z,19.15
2019-05-15T21:24:48.334Z,19.08
2019-05-15T21:27:23.811Z,19.06
2019-05-15T21:29:50.779Z,18.97
2019-05-15T21:32:21.127Z,18.94
2019-05-15T21:34:51.866Z,19.02
2019-05-15T21:37:23.081Z,18.89
2019-05-15T21:39:54.403Z,18.72
2019-05-15T21:42:24.948Z,18.72
2019-05-15T21:44:55.206Z,18.81
2019-05-15T21:47:27.927Z,18.52
2019-05-15T21:49:59.141Z,18.72
2019-05-15T21:52:30.691Z,18.68
2019-05-15T21:55:02.196Z,18.70
2019-05-15T21:57:36.408Z,18.70
2019-05-15T22:00:08.807Z,18.64
2019-05-15T22:02:40.281Z,18.65
2019-05-15T22:05:11.788Z,18.59
2019-05-15T22:07:41.958Z,18.57
2019-05-15T22:10:13.393Z,18.52
2019-05-15T22:12:43.534Z,18.52
2019-05-15T22:15:15.304Z,18.47
2019-05-15T22:17:49.347Z,18.43
2019-05-15T22:20:19.966Z,18.30
2019-05-15T22:22:50.760Z,18.37
2019-05-15T22:25:22.572Z,18.37
2019-05-15T22:27:53.003Z,18.27
2019-05-15T22:30:23.931Z,18.22
2019-05-15T22:32:54.062Z,18.20
2019-05-15T22:35:24.232Z,18.20
2019-05-15T22:37:55.402Z,18.16
2019-05-15T22:40:28.991Z,18.08
2019-05-15T22:43:00.841Z,18.08
2019-05-15T22:45:31.009Z,18.03
2019-05-15T22:48:01.830Z,18.03
2019-05-15T22:50:32.049Z,18.07
2019-05-15T22:53:03.465Z,18.09
2019-05-15T22:55:35.017Z,18.08
2019-05-15T22:58:05.167Z,18.02
2019-05-15T23:00:35.421Z,18.00
2019-05-15T23:03:09.589Z,18.00
2019-05-15T23:05:40.173Z,17.85
2019-05-15T23:08:10.354Z,17.94
2019-05-15T23:10:41.088Z,17.97
2019-05-15T23:13:12.773Z,17.97
2019-05-15T23:15:43.374Z,17.94
2019-05-15T23:18:13.834Z,17.86
2019-05-15T23:20:44.011Z,17.79
2019-05-15T23:23:14.427Z,17.83
2019-05-15T23:25:44.928Z,17.77
2019-05-15T23:28:16.755Z,17.69
2019-05-15T23:30:48.522Z,17.73
2019-05-15T23:33:18.983Z,17.64
2019-05-15T23:35:52.257Z,17.61
2019-05-15T23:38:22.437Z,17.62
2019-05-15T23:40:53.494Z,17.46
2019-05-15T23:43:23.663Z,17.57
2019-05-15T23:45:54.303Z,17.59
2019-05-15T23:48:24.445Z,17.54
2019-05-15T23:50:55.160Z,17.54
2019-05-15T23:53:25.889Z,17.37
2019-05-15T23:55:58.901Z,17.49
2019-05-15T23:58:29.441Z,17.49
